Time;durP1;ratioP1;P1;durP2;ratioP2;P2;SDS_P1;SDS_P2;PMS_P1;PMS_P2;Temp;Humidity;BMP_temperature;BMP_pressure;BME280_temperature;BME280_humidity;BME280_pressure;Samples;Min_cycle;Max_cycle;Signal;HPM_P1;HPM_P2
2023/02/24 00:00:36;;;;;;;15.70;11.40;;;;;;;10.15;78.53;98463.22;5091107;28;41105;-80
2023/02/24 00:03:09;;;;;;;15.50;9.87;;;;;;;10.06;78.78;98448.84;5088397;28;40931;-80
2023/02/24 00:05:41;;;;;;;17.57;11.57;;;;;;;10.00;79.58;98446.63;5108177;28;40814;-81
2023/02/24 00:08:09;;;;;;;16.43;10.83;;;;;;;9.96;79.56;98447.75;5088431;28;43753;-80
2023/02/24 00:10:37;;;;;;;13.50;9.73;;;;;;;9.80;79.34;98431.19;5090892;28;42912;-80
2023/02/24 00:13:05;;;;;;;17.53;10.90;;;;;;;9.79;80.07;98446.22;5091348;28;40807;-80
2023/02/24 00:15:33;;;;;;;15.67;11.23;;;;;;;9.75;80.08;98446.53;5091095;28;41104;-80
2023/02/24 00:18:05;;;;;;;17.63;11.53;;;;;;;9.78;79.72;98456.88;5091338;28;43017;-80
2023/02/24 00:20:35;;;;;;;13.93;9.83;;;;;;;9.83;79.66;98450.38;5074142;28;41419;-80
2023/02/24 00:23:03;;;;;;;15.90;10.57;;;;;;;9.88;79.13;98455.38;5108506;28;38799;-80
2023/02/24 00:25:31;;;;;;;14.83;10.83;;;;;;;9.92;79.12;98440.97;5090651;28;41490;-80
2023/02/24 00:28:00;;;;;;;18.37;12.33;;;;;;;9.94;79.11;98447.84;5092591;28;42937;-80
2023/02/24 00:30:28;;;;;;;16.57;11.03;;;;;;;9.95;79.15;98440.78;5073808;28;42233;-80
2023/02/24 00:33:00;;;;;;;20.77;12.20;;;;;;;9.88;78.99;98424.47;5074269;28;40112;-80
2023/02/24 00:35:29;;;;;;;21.13;12.97;;;;;;;9.82;78.90;98414.28;5073738;28;42060;-80
2023/02/24 00:37:58;;;;;;;18.43;13.53;;;;;;;10.00;79.63;98433.38;5091670;28;43435;-80
2023/02/24 00:40:26;;;;;;;21.40;13.93;;;;;;;9.67;79.80;98381.78;5077602;28;41069;-80
2023/02/24 00:42:54;;;;;;;22.20;15.00;;;;;;;9.90;80.37;98419.91;5077553;28;38872;-80
2023/02/24 00:45:21;;;;;;;20.60;15.13;;;;;;;10.01;80.32;98435.09;5077631;28;41790;-80
2023/02/24 00:47:49;;;;;;;22.33;14.67;;;;;;;10.02;79.82;98427.03;5094104;28;42109;-80
2023/02/24 00:50:17;;;;;;;23.40;15.70;;;;;;;9.93;80.16;98410.91;5094288;28;42199;-80
2023/02/24 00:52:45;;;;;;;23.00;13.73;;;;;;;10.03;80.13;98423.44;5094404;28;40605;-80
2023/02/24 00:55:14;;;;;;;23.27;15.20;;;;;;;10.04;79.97;98413.69;5094218;28;41980;-80
2023/02/24 00:57:44;;;;;;;20.13;14.07;;;;;;;9.90;79.72;98389.97;5094170;28;43249;-80
2023/02/24 01:00:15;;;;;;;23.77;14.70;;;;;;;10.00;79.73;98413.06;5094398;28;42687;-80
2023/02/24 01:02:46;;;;;;;20.27;12.40;;;;;;;10.04;80.02;98418.97;5077126;28;39306;-81
2023/02/24 01:05:15;;;;;;;19.20;12.40;;;;;;;9.95;79.63;98398.44;5076771;28;40694;-80
2023/02/24 01:07:43;;;;;;;20.17;14.03;;;;;;;10.04;79.50;98409.25;5076832;28;41970;-81
2023/02/24 01:10:12;;;;;;;20.87;13.43;;;;;;;10.05;79.50;98404.81;5076695;28;43413;-79
2023/02/24 01:12:49;;;;;;;19.10;12.77;;;;;;;10.05;79.92;98399.50;5077335;28;39083;-80
2023/02/24 01:15:18;;;;;;;20.00;13.00;;;;;;;10.04;79.87;98392.53;5093939;28;41824;-80
2023/02/24 01:17:46;;;;;;;18.23;12.33;;;;;;;10.04;79.67;98393.38;5060627;28;41844;-81
2023/02/24 01:20:17;;;;;;;17.37;11.47;;;;;;;10.07;79.38;98392.31;5093743;28;41290;-80
2023/02/24 01:22:47;;;;;;;18.33;11.77;;;;;;;10.06;79.23;98393.28;5076695;28;39975;-81
2023/02/24 01:25:19;;;;;;;21.20;12.70;;;;;;;10.05;79.38;98388.94;5076345;28;40503;-79
2023/02/24 01:27:49;;;;;;;19.30;13.00;;;;;;;10.04;79.67;98387.22;5076748;28;41943;-81
2023/02/24 01:30:17;;;;;;;20.47;12.83;;;;;;;10.02;79.35;98399.72;5093357;28;41895;-81
2023/02/24 01:32:46;;;;;;;19.37;11.97;;;;;;;10.04;79.42;98388.09;5076470;28;38837;-80
2023/02/24 01:35:14;;;;;;;20.93;14.10;;;;;;;10.04;79.50;98381.94;5076064;28;41994;-81
2023/02/24 01:37:42;;;;;;;20.63;13.83;;;;;;;10.03;79.63;98374.97;5092786;28;41798;-79
2023/02/24 01:40:19;;;;;;;19.27;12.30;;;;;;;10.02;79.55;98374.09;5092820;28;41098;-80
2023/02/24 01:42:49;;;;;;;23.53;14.67;;;;;;;9.92;79.48;98345.75;5090642;28;40366;-80
2023/02/24 01:45:21;;;;;;;20.60;13.10;;;;;;;10.00;79.72;98364.59;5076080;28;40796;-81
2023/02/24 01:47:50;;;;;;;20.03;13.27;;;;;;;9.91;79.64;98341.41;5076376;28;41688;-81
2023/02/24 01:50:21;;;;;;;20.37;12.53;;;;;;;9.93;79.49;98342.16;5075443;28;41610;-80
2023/02/24 01:52:54;;;;;;;27.20;16.10;;;;;;;10.00;79.70;98354.88;5091290;28;40770;-80
2023/02/24 01:55:27;;;;;;;16.33;12.33;;;;;;;9.99;79.36;98360.28;5092785;28;40917;-80
2023/02/24 01:57:59;;;;;;;19.67;13.47;;;;;;;9.86;79.54;98332.97;5076207;28;43156;-80
2023/02/24 02:00:44;;;;;;;18.43;12.53;;;;;;;9.96;79.46;98348.09;5093191;28;40767;-79
2023/02/24 02:03:18;;;;;;;20.07;12.50;;;;;;;9.91;79.64;98338.75;5090431;28;40163;-79
2023/02/24 02:05:47;;;;;;;21.60;13.90;;;;;;;9.89;79.55;98336.22;5076083;28;40746;-80
2023/02/24 02:08:17;;;;;;;18.57;11.90;;;;;;;9.82;79.53;98331.47;5092892;28;42853;-79
2023/02/24 02:10:46;;;;;;;18.07;11.40;;;;;;;9.87;79.36;98335.50;5075636;28;41441;-82
2023/02/24 02:13:20;;;;;;;20.27;11.77;;;;;;;9.88;79.30;98333.69;5093035;28;40969;-80
2023/02/24 02:15:58;;;;;;;21.70;13.07;;;;;;;9.75;79.48;98327.56;5076366;28;40774;-80
2023/02/24 02:18:37;;;;;;;17.37;11.50;;;;;;;9.84;79.28;98340.13;5089797;28;42858;-80
2023/02/24 02:21:37;;;;;;;20.23;13.03;;;;;;;9.82;79.49;98339.41;5093105;28;41135;-80
2023/02/24 02:24:25;;;;;;;19.23;12.73;;;;;;;9.68;79.43;98314.72;5092938;28;40324;-79
2023/02/24 02:27:24;;;;;;;16.83;11.37;;;;;;;9.72;79.90;98323.31;5075454;28;41083;-80
2023/02/24 02:30:31;;;;;;;20.40;12.13;;;;;;;9.68;79.92;98320.00;5092339;28;43637;-78
2023/02/24 02:33:37;;;;;;;22.17;13.00;;;;;;;9.65;79.65;98317.56;5075711;28;41052;-80
2023/02/24 02:36:17;;;;;;;18.10;12.00;;;;;;;9.61;79.97;98324.03;5062793;28;40878;-80
2023/02/24 02:38:56;;;;;;;19.77;12.43;;;;;;;9.59;80.09;98320.66;5075297;28;40590;-79
2023/02/24 02:41:29;;;;;;;24.03;14.63;;;;;;;9.58;80.00;98312.81;5092967;28;42844;-80
2023/02/24 02:44:06;;;;;;;20.83;13.57;;;;;;;9.57;79.98;98314.59;5075524;28;42753;-79
2023/02/24 02:46:39;;;;;;;21.70;12.67;;;;;;;9.63;79.90;98314.22;5075382;28;38996;-80
2023/02/24 02:49:16;;;;;;;22.93;15.60;;;;;;;9.62;80.24;98306.38;5089310;28;41645;-80
2023/02/24 02:51:53;;;;;;;25.23;15.27;;;;;;;9.55;80.65;98299.78;5075027;28;42746;-80
2023/02/24 02:54:29;;;;;;;25.33;16.07;;;;;;;9.51;80.83;98288.59;5075053;28;43104;-80
2023/02/24 02:57:04;;;;;;;27.07;16.33;;;;;;;9.61;81.01;98307.31;5076180;28;38999;-80
2023/02/24 02:59:34;;;;;;;26.27;15.07;;;;;;;9.61;80.78;98305.53;5089197;28;41541;-80
2023/02/24 03:02:13;;;;;;;26.40;15.83;;;;;;;9.54;80.95;98303.38;5074706;28;42949;-80
2023/02/24 03:04:50;;;;;;;21.13;13.43;;;;;;;9.63;80.91;98313.38;5074854;28;42276;-80
2023/02/24 03:07:23;;;;;;;24.43;15.27;;;;;;;9.63;80.63;98314.22;5092119;28;38553;-80
2023/02/24 03:09:57;;;;;;;28.77;17.07;;;;;;;9.65;81.01;98312.28;5089365;28;42045;-80
2023/02/24 03:12:29;;;;;;;25.67;16.10;;;;;;;9.68;81.00;98314.72;5088837;28;42935;-80
2023/02/24 03:15:00;;;;;;;24.80;14.83;;;;;;;9.71;80.80;98317.16;5074726;28;42050;-81
2023/02/24 03:17:33;;;;;;;26.87;16.33;;;;;;;9.73;81.25;98309.13;5075236;28;40456;-80
2023/02/24 03:20:14;;;;;;;27.20;17.20;;;;;;;9.62;81.13;98291.38;5075449;28;40494;-80
2023/02/24 03:22:48;;;;;;;29.37;17.60;;;;;;;9.79;80.99;98310.50;5074983;28;42032;-81
2023/02/24 03:25:17;;;;;;;28.80;16.83;;;;;;;9.42;81.06;98252.19;5075129;28;41979;-81
2023/02/24 03:27:50;;;;;;;25.50;16.10;;;;;;;9.81;81.06;98305.97;5075047;28;39344;-80
2023/02/24 03:30:22;;;;;;;27.20;16.70;;;;;;;9.71;81.09;98290.72;5090064;28;41639;-80
2023/02/24 03:32:55;;;;;;;25.97;16.83;;;;;;;9.82;81.17;98307.66;5074949;28;41456;-80
2023/02/24 03:35:27;;;;;;;30.07;17.50;;;;;;;9.74;81.23;98289.69;5074944;28;41271;-79
2023/02/24 03:38:00;;;;;;;26.87;15.87;;;;;;;9.84;81.20;98300.47;5074741;28;39108;-80
2023/02/24 03:40:34;;;;;;;26.10;17.37;;;;;;;9.76;81.20;98286.94;5074887;28;40834;-80
2023/02/24 03:43:06;;;;;;;27.63;16.60;;;;;;;9.85;80.84;98299.53;5074832;28;41757;-80
2023/02/24 03:45:36;;;;;;;28.03;15.93;;;;;;;9.75;80.85;98285.25;5089786;28;42327;-80
2023/02/24 03:48:05;;;;;;;21.50;13.90;;;;;;;9.85;81.11;98299.53;5074688;28;40097;-80
2023/02/24 03:50:34;;;;;;;23.13;15.27;;;;;;;9.81;80.78;98295.38;5091328;28;41894;-80
2023/02/24 03:53:29;;;;;;;23.93;15.23;;;;;;;9.64;80.83;98273.56;5075083;28;41875;-80
2023/02/24 03:56:09;;;;;;;21.90;13.73;;;;;;;9.57;80.80;98267.03;5090046;28;42337;-80
2023/02/24 03:58:55;;;;;;;24.63;15.23;;;;;;;9.63;81.17;98286.94;5091896;28;40249;-80
2023/02/24 04:01:33;;;;;;;23.70;13.77;;;;;;;9.55;81.22;98282.13;5074710;28;41674;-80
2023/02/24 04:04:07;;;;;;;23.03;14.17;;;;;;;9.52;80.94;98279.69;5088334;28;43681;-80
2023/02/24 04:06:52;;;;;;;25.23;15.23;;;;;;;9.34;81.02;98251.88;5091672;28;43231;-80
2023/02/24 04:09:32;;;;;;;23.23;14.50;;;;;;;9.42;81.16;98273.34;5074261;28;39903;-80
2023/02/24 09:05:23;;;;;;;30.73;15.77;;;;;;;9.18;100.00;98056.56;5109616;28;20564;-80
2023/02/24 09:07:53;;;;;;;27.60;15.83;;;;;;;9.78;96.75;98052.31;5091665;28;40417;-80
2023/02/24 09:10:21;;;;;;;29.27;15.47;;;;;;;10.47;91.79;98067.53;5109593;28;41683;-80
2023/02/24 09:12:52;;;;;;;24.20;15.17;;;;;;;11.00;87.99;98074.03;5109424;28;43045;-79
2023/02/24 09:15:24;;;;;;;25.57;14.93;;;;;;;11.41;84.06;98062.03;5092185;28;41313;-79
2023/02/24 09:18:05;;;;;;;28.70;16.07;;;;;;;11.79;81.22;98075.81;5108685;28;40218;-81
2023/02/24 09:23:28;;;;;;;24.87;13.83;;;;;;;12.42;75.16;98078.66;5106147;28;42885;-79
2023/02/24 09:25:57;;;;;;;24.00;13.97;;;;;;;12.59;74.19;98071.00;5105415;28;42131;-79
2023/02/24 09:28:26;;;;;;;21.57;13.47;;;;;;;12.79;72.33;98071.13;5090893;28;39117;-79
2023/02/24 09:30:55;;;;;;;24.23;14.40;;;;;;;12.95;70.77;98077.69;5108283;28;42621;-80
2023/02/24 09:33:26;;;;;;;23.70;14.80;;;;;;;13.02;69.82;98066.53;5107842;28;43737;-83
2023/02/24 09:36:08;;;;;;;28.40;15.50;;;;;;;13.17;67.78;98071.44;5108265;28;42570;-81
2023/02/24 09:41:30;;;;;;;24.27;15.30;;;;;;;13.50;66.33;98050.88;5069442;28;41000;-81
2023/02/24 09:44:02;;;;;;;25.13;15.67;;;;;;;13.62;65.33;98055.09;5090751;28;41962;-81
2023/02/24 09:46:41;;;;;;;21.90;14.37;;;;;;;13.75;64.69;98045.06;5090733;28;41083;-82
2023/02/24 09:49:17;;;;;;;20.93;13.50;;;;;;;13.87;62.42;98046.66;5090894;28;39032;-81
2023/02/24 09:51:56;;;;;;;22.60;14.03;;;;;;;13.93;61.33;98053.25;5107555;28;43224;-81
2023/02/24 09:54:31;;;;;;;20.23;13.03;;;;;;;14.08;60.72;98051.06;5106701;28;43112;-80
2023/02/24 09:57:08;;;;;;;22.77;13.07;;;;;;;14.27;61.14;98048.41;5090526;28;41061;-81
2023/02/24 09:59:59;;;;;;;19.97;12.93;;;;;;;14.44;59.86;98042.44;5107059;28;39804;-81
2023/02/24 10:02:42;;;;;;;20.30;13.47;;;;;;;14.71;57.60;98066.53;5104681;28;42696;-81
2023/02/24 10:05:23;;;;;;;22.13;13.23;;;;;;;14.66;57.43;98041.31;5108382;28;42826;-81
2023/02/24 10:07:55;;;;;;;20.73;12.57;;;;;;;14.83;56.65;98067.25;5090442;28;42052;-81
2023/02/24 10:10:28;;;;;;;21.17;13.77;;;;;;;14.74;55.90;98054.75;5090245;28;39153;-83
2023/02/24 10:13:13;;;;;;;19.67;13.37;;;;;;;14.83;56.58;98053.09;5104524;28;42046;-80
2023/02/24 10:15:57;;;;;;;19.83;13.03;;;;;;;14.87;55.32;98059.78;5098746;28;41795;-81
2023/02/24 10:18:31;;;;;;;21.20;13.20;;;;;;;14.97;56.24;98056.13;5077257;28;41300;-81
2023/02/24 10:21:09;;;;;;;21.60;12.60;;;;;;;14.99;56.11;98026.66;5093453;28;38662;-83
2023/02/24 10:23:55;;;;;;;19.53;12.77;;;;;;;15.00;53.63;98045.19;5076520;28;40603;-81
2023/02/24 10:26:33;;;;;;;17.57;11.60;;;;;;;14.93;54.20;98027.25;5076128;28;43059;-81
2023/02/24 10:29:17;;;;;;;17.50;11.53;;;;;;;15.17;54.54;98032.94;5076763;28;42087;-81
2023/02/24 10:31:56;;;;;;;18.60;12.73;;;;;;;15.40;53.94;98036.94;5093058;28;40188;-79
2023/02/24 10:34:30;;;;;;;19.03;12.00;;;;;;;15.41;53.26;98043.97;5091960;28;41773;-81
2023/02/24 10:36:59;;;;;;;20.57;12.10;;;;;;;15.43;52.75;98039.31;5093290;28;43077;-81
2023/02/24 10:39:32;;;;;;;21.03;12.33;;;;;;;15.18;52.37;97999.97;5076599;28;41153;-81
2023/02/24 10:42:16;;;;;;;17.90;11.93;;;;;;;15.33;52.63;98038.50;5093567;28;41006;-81
2023/02/24 10:44:52;;;;;;;19.50;12.83;;;;;;;15.42;52.50;98034.97;5091497;28;41859;-81
2023/02/24 10:47:29;;;;;;;20.27;12.87;;;;;;;15.62;51.45;98032.25;5090526;28;42855;-81
2023/02/24 10:49:59;;;;;;;19.77;12.30;;;;;;;15.86;51.81;98024.53;5090604;28;41768;-80
2023/02/24 10:52:49;;;;;;;19.07;11.80;;;;;;;16.03;49.90;98036.25;5094342;28;40316;-81
2023/02/24 10:55:38;;;;;;;17.37;10.83;;;;;;;16.28;50.50;98015.97;5075461;28;41163;-81
2023/02/24 10:58:14;;;;;;;17.73;11.90;;;;;;;16.57;48.76;98024.59;5093394;28;41847;-82
2023/02/24 11:01:16;;;;;;;18.33;12.20;;;;;;;16.84;48.04;98029.03;5076516;28;43163;-82
2023/02/24 11:04:01;;;;;;;16.77;11.63;;;;;;;16.87;48.09;98002.81;5076178;28;39652;-79
2023/02/24 11:06:41;;;;;;;20.13;12.37;;;;;;;17.52;47.61;98005.88;5094001;28;41808;-79
2023/02/24 11:09:30;;;;;;;16.10;11.77;;;;;;;17.95;45.91;98017.44;5076684;28;42622;-80
2023/02/24 11:17:49;;;;;;;18.57;12.23;;;;;;;18.22;44.63;98000.28;5092677;28;41435;-80
2023/02/24 11:20:25;;;;;;;18.10;12.10;;;;;;;18.07;44.68;97957.19;5109744;28;43397;-81
2023/02/24 11:22:54;;;;;;;16.07;11.53;;;;;;;18.27;43.77;97985.38;5076100;28;42713;-81
2023/02/24 11:25:25;;;;;;;15.43;10.83;;;;;;;18.27;43.66;97985.38;5092501;28;40025;-79
2023/02/24 11:27:55;;;;;;;16.47;11.23;;;;;;;18.04;42.46;97976.31;5091998;28;40456;-80
2023/02/24 11:30:35;;;;;;;14.73;10.73;;;;;;;18.26;42.50;97991.75;5092465;28;41728;-81
2023/02/24 11:33:17;;;;;;;18.03;11.50;;;;;;;18.09;42.36;97973.97;5075881;28;41439;-81
2023/02/24 11:35:55;;;;;;;16.27;10.73;;;;;;;18.30;43.79;97971.63;5092016;28;41213;-81
2023/02/24 11:38:36;;;;;;;14.20;9.80;;;;;;;18.22;43.64;97936.78;5090063;28;41775;-80
2023/02/24 11:41:12;;;;;;;15.77;10.00;;;;;;;18.29;42.98;97945.88;5092430;28;42455;-81
2023/02/24 11:43:45;;;;;;;15.23;10.20;;;;;;;18.76;42.58;97957.78;5091016;28;42245;-80
2023/02/24 11:46:17;;;;;;;14.20;9.77;;;;;;;18.61;42.03;97957.63;5092591;28;39001;-80
2023/02/24 11:48:51;;;;;;;13.97;9.93;;;;;;;18.70;42.96;97945.03;5075804;28;41953;-83
2023/02/24 11:51:22;;;;;;;16.77;10.23;;;;;;;18.67;40.69;97956.13;5075253;28;41874;-81
2023/02/24 11:53:54;;;;;;;15.93;10.17;;;;;;;18.15;41.89;97937.63;5075560;28;41141;-80
2023/02/24 11:56:28;;;;;;;16.60;10.47;;;;;;;17.71;43.07;97912.94;5091425;28;40181;-80
2023/02/24 11:59:04;;;;;;;15.10;10.63;;;;;;;17.53;43.45;97913.88;5075783;28;40838;-81
2023/02/24 12:01:37;;;;;;;15.57;10.80;;;;;;;17.35;43.82;97889.03;5091523;28;42883;-81
2023/02/24 12:04:13;;;;;;;16.97;11.47;;;;;;;17.45;44.51;97895.09;5090550;28;42114;-80
2023/02/24 12:06:51;;;;;;;16.20;11.33;;;;;;;17.45;43.83;97883.53;5091887;28;38885;-81
2023/02/24 12:09:23;;;;;;;14.40;10.33;;;;;;;17.48;43.47;97889.41;5075870;28;41032;-80
2023/02/24 12:11:55;;;;;;;15.10;10.30;;;;;;;17.49;42.91;97896.44;5091607;28;41701;-80
2023/02/24 12:14:33;;;;;;;14.90;9.37;;;;;;;17.36;43.09;97885.34;5091670;28;41312;-80
2023/02/24 12:17:12;;;;;;;14.43;10.47;;;;;;;17.07;42.74;97892.91;5127308;27;40160;-80
2023/02/24 12:19:53;;;;;;;17.57;11.10;;;;;;;16.65;43.08;97874.16;5074739;28;40639;-79
2023/02/24 12:22:23;;;;;;;15.07;10.50;;;;;;;16.35;43.56;97867.41;5074800;28;41805;-80
2023/02/24 12:24:53;;;;;;;14.33;9.97;;;;;;;16.21;44.66;97871.47;5075525;28;40824;-81
2023/02/24 12:27:41;;;;;;;15.30;10.60;;;;;;;15.85;44.52;97835.97;5093461;28;40825;-80
2023/02/24 12:30:48;;;;;;;16.13;10.67;;;;;;;15.88;45.11;97848.16;5092169;28;42097;-81
2023/02/24 12:33:43;;;;;;;15.17;10.20;;;;;;;15.81;46.18;97837.28;5074991;28;43759;-81
2023/02/24 12:36:21;;;;;;;16.47;9.80;;;;;;;15.80;45.75;97830.25;5074153;28;41047;-80
2023/02/24 12:39:00;;;;;;;14.43;9.67;;;;;;;15.91;46.07;97827.34;5088763;28;39573;-80
2023/02/24 12:41:45;;;;;;;15.10;9.93;;;;;;;15.88;45.07;97829.47;5075258;28;40679;-80
2023/02/24 12:44:26;;;;;;;14.17;9.60;;;;;;;15.87;45.03;97830.47;5090124;28;42763;-80
2023/02/24 12:47:02;;;;;;;13.23;9.37;;;;;;;15.71;45.36;97807.13;5125750;27;43218;-81
2023/02/24 12:52:52;;;;;;;15.70;10.37;;;;;;;15.62;45.29;97810.72;5151458;27;21008;-84
2023/02/24 12:55:26;;;;;;;13.90;9.30;;;;;;;15.61;45.38;97804.53;5133117;27;39473;-81
2023/02/24 12:58:05;;;;;;;13.83;9.60;;;;;;;15.92;45.03;97802.31;5147233;27;42888;-81
2023/02/24 13:00:44;;;;;;;14.93;9.27;;;;;;;16.25;45.46;97800.72;5147493;27;43468;-82
2023/02/24 13:03:27;;;;;;;12.77;9.00;;;;;;;16.65;43.67;97784.13;5150504;27;40773;-81
2023/02/24 13:06:06;;;;;;;13.33;9.67;;;;;;;17.67;41.90;97802.66;5150012;27;40046;-81
2023/02/24 13:08:45;;;;;;;13.57;8.97;;;;;;;18.12;41.07;97801.31;5132609;27;41703;-81
2023/02/24 13:11:27;;;;;;;14.73;9.60;;;;;;;18.58;39.78;97815.81;5149254;27;42778;-80
2023/02/24 13:14:04;;;;;;;13.47;9.00;;;;;;;19.61;38.73;97795.09;5146891;27;42215;-81
2023/02/24 13:16:38;;;;;;;14.23;9.47;;;;;;;20.00;37.21;97811.06;5133030;27;39224;-81
2023/02/24 13:19:17;;;;;;;12.07;8.57;;;;;;;20.39;37.27;97811.75;5132872;27;40869;-82
2023/02/24 13:21:56;;;;;;;12.67;9.03;;;;;;;20.61;35.97;97810.03;5132235;27;42770;-81
2023/02/24 13:24:29;;;;;;;15.40;10.23;;;;;;;20.89;35.84;97796.75;5132688;27;42199;-81
2023/02/24 13:27:05;;;;;;;11.87;8.93;;;;;;;21.34;34.87;97816.41;5132824;27;39175;-83
2023/02/24 13:29:44;;;;;;;11.43;9.17;;;;;;;20.71;35.96;97799.81;5132655;27;41042;-80
2023/02/24 13:32:28;;;;;;;13.13;9.30;;;;;;;19.86;36.30;97777.75;5132315;27;42394;-79
2023/02/24 13:34:58;;;;;;;12.90;9.27;;;;;;;19.27;37.67;97773.97;5149557;27;41073;-80
2023/02/24 13:37:33;;;;;;;9.80;8.20;;;;;;;18.93;38.44;97769.75;5150614;27;39933;-80
2023/02/24 13:40:25;;;;;;;11.87;8.90;;;;;;;18.48;38.95;97770.41;5132325;27;41739;-81
2023/02/24 13:42:59;;;;;;;11.13;8.60;;;;;;;18.05;39.11;97757.44;5131904;27;41820;-80
2023/02/24 13:45:29;;;;;;;12.20;8.17;;;;;;;17.87;40.35;97746.91;5131933;27;42578;-81
2023/02/24 13:48:14;;;;;;;13.37;8.80;;;;;;;17.83;40.28;97742.88;5149320;27;40073;-80
2023/02/24 13:51:05;;;;;;;17.20;10.37;;;;;;;17.57;39.85;97733.16;5146447;27;43198;-80
2023/02/24 13:53:49;;;;;;;13.40;9.40;;;;;;;17.35;40.50;97743.69;5131633;27;41776;-81
2023/02/24 13:56:32;;;;;;;12.13;9.63;;;;;;;17.07;40.83;97730.59;5147664;27;42363;-81
2023/02/24 13:59:19;;;;;;;11.80;8.00;;;;;;;16.72;41.36;97707.59;5131912;27;39884;-80
2023/02/24 14:01:51;;;;;;;13.03;9.10;;;;;;;16.60;41.58;97711.53;5130518;27;41068;-81
2023/02/24 14:04:23;;;;;;;12.50;8.23;;;;;;;16.40;42.34;97704.78;5133039;27;42965;-79
2023/02/24 14:06:54;;;;;;;12.30;8.30;;;;;;;16.27;42.26;97709.72;5117626;27;41152;-82
2023/02/24 14:09:25;;;;;;;12.37;8.90;;;;;;;16.19;42.34;97717.72;5117961;27;40102;-80
2023/02/24 14:12:03;;;;;;;13.00;8.57;;;;;;;15.86;41.96;97717.50;5135653;27;42735;-80
2023/02/24 14:14:31;;;;;;;13.03;9.00;;;;;;;15.72;42.72;97712.72;5118145;27;41479;-79
2023/02/24 14:16:59;;;;;;;12.30;8.60;;;;;;;15.68;42.21;97708.72;5134876;27;43164;-80
2023/02/24 14:19:27;;;;;;;11.30;8.40;;;;;;;15.61;42.69;97683.63;5118229;27;39784;-79
2023/02/24 14:21:57;;;;;;;11.20;8.70;;;;;;;15.75;42.73;97693.72;5117478;27;40512;-80
2023/02/24 14:24:27;;;;;;;11.30;8.43;;;;;;;15.67;42.58;97693.69;5117969;27;44038;-80
2023/02/24 14:26:59;;;;;;;10.90;8.63;;;;;;;15.35;42.32;97664.88;5118143;27;42934;-80
2023/02/24 14:29:30;;;;;;;11.30;8.57;;;;;;;15.23;42.38;97693.63;5118429;27;38945;-80
2023/02/24 14:31:59;;;;;;;14.53;8.13;;;;;;;14.90;42.90;97670.31;5117460;27;41892;-80
2023/02/24 14:34:29;;;;;;;11.33;8.43;;;;;;;14.74;43.65;97665.66;5135102;27;42980;-79
2023/02/24 14:37:00;;;;;;;10.50;7.57;;;;;;;14.65;43.20;97679.88;5117646;27;41046;-80
2023/02/24 14:39:33;;;;;;;11.67;7.93;;;;;;;14.46;43.51;97677.34;5118003;27;39044;-80
2023/02/24 14:42:12;;;;;;;14.07;9.03;;;;;;;14.17;44.22;97672.13;5117739;27;41942;-80
2023/02/24 14:44:42;;;;;;;11.83;7.80;;;;;;;13.95;44.73;97650.25;5118191;27;41669;-81
2023/02/24 14:47:14;;;;;;;16.23;9.20;;;;;;;13.83;44.35;97659.38;5135633;27;42995;-81
2023/02/24 14:49:52;;;;;;;12.53;8.03;;;;;;;13.81;45.14;97664.00;5136394;27;39832;-80
2023/02/24 14:52:28;;;;;;;13.73;8.70;;;;;;;13.79;45.13;97663.31;5134141;27;41270;-80
2023/02/24 14:55:00;;;;;;;13.00;8.47;;;;;;;13.76;44.77;97657.44;5117385;27;43189;-81
2023/02/24 14:57:33;;;;;;;13.03;8.70;;;;;;;13.38;44.54;97600.69;5132742;27;43209;-79
2023/02/24 15:00:09;;;;;;;13.83;8.83;;;;;;;13.49;44.35;97628.94;5134881;27;40073;-82
2023/02/24 15:02:42;;;;;;;12.37;8.03;;;;;;;13.61;44.90;97627.78;5132452;27;43006;-80
2023/02/24 15:05:11;;;;;;;14.33;8.83;;;;;;;13.70;44.26;97666.84;5117143;27;41817;-81
2023/02/24 15:07:43;;;;;;;11.47;7.80;;;;;;;13.66;44.25;97652.16;5134255;27;42366;-80
2023/02/24 15:10:20;;;;;;;12.73;8.10;;;;;;;13.58;44.61;97646.72;5117167;27;40096;-81
2023/02/24 15:12:54;;;;;;;14.37;8.30;;;;;;;13.58;45.06;97642.25;5134254;27;40662;-80
2023/02/24 15:15:25;;;;;;;12.00;8.10;;;;;;;13.66;45.30;97636.19;5116206;27;42857;-80
2023/02/24 15:17:56;;;;;;;10.87;7.40;;;;;;;13.56;45.48;97598.16;5133487;27;42518;-81
2023/02/24 15:20:29;;;;;;;10.67;7.10;;;;;;;13.72;45.16;97629.47;5135490;27;40013;-80
2023/02/24 15:22:57;;;;;;;13.30;8.10;;;;;;;13.61;45.15;97617.16;5135748;27;42670;-80
2023/02/24 15:25:28;;;;;;;12.07;8.10;;;;;;;13.50;46.16;97610.19;5117206;27;43125;-80
2023/02/24 15:28:00;;;;;;;12.43;8.47;;;;;;;13.33;45.58;97612.78;5132435;27;42254;-80
2023/02/24 15:30:32;;;;;;;13.47;8.53;;;;;;;13.16;46.15;97607.19;5134870;27;40642;-80
2023/02/24 15:33:02;;;;;;;13.90;8.27;;;;;;;12.92;46.10;97593.47;5135000;27;42497;-81
2023/02/24 15:35:32;;;;;;;12.50;8.27;;;;;;;12.72;46.39;97582.03;5153578;27;43418;-81
2023/02/24 15:38:02;;;;;;;12.70;8.30;;;;;;;12.67;46.47;97596.72;5155946;27;42810;-80
2023/02/24 15:40:30;;;;;;;11.83;8.70;;;;;;;12.54;46.98;97592.50;5138350;27;41660;-80
2023/02/24 15:43:07;;;;;;;13.53;9.13;;;;;;;12.42;47.65;97590.97;5156731;27;42958;-80
2023/02/24 15:45:37;;;;;;;12.63;8.07;;;;;;;12.33;47.91;97586.50;5140579;27;42659;-81
2023/02/24 15:48:20;;;;;;;11.27;7.90;;;;;;;12.13;48.34;97552.91;5134493;27;42927;-80
2023/02/24 15:50:50;;;;;;;11.67;6.80;;;;;;;12.10;48.59;97562.00;5116360;27;38814;-79
2023/02/24 15:53:18;;;;;;;13.10;8.43;;;;;;;12.06;48.58;97579.16;5133275;27;42671;-79
2023/02/24 15:55:46;;;;;;;11.97;7.73;;;;;;;11.95;49.05;97562.53;5133326;27;43002;-80
2023/02/24 15:58:18;;;;;;;12.77;8.60;;;;;;;11.85;49.06;97560.69;5133295;27;41025;-80
2023/02/24 16:00:51;;;;;;;12.93;8.43;;;;;;;11.78;49.52;97556.03;5116600;27;38806;-79
2023/02/24 16:03:18;;;;;;;12.50;7.57;;;;;;;11.57;49.60;97537.53;5133085;27;41693;-81
2023/02/24 16:05:46;;;;;;;13.27;8.37;;;;;;;11.49;49.24;97532.06;5116168;27;41988;-80
2023/02/24 16:08:18;;;;;;;11.97;7.60;;;;;;;11.48;50.12;97543.66;5116040;27;41503;-80
2023/02/24 16:10:49;;;;;;;11.90;7.30;;;;;;;11.44;50.36;97544.88;5130209;27;40037;-80
2023/02/24 16:13:21;;;;;;;13.10;7.57;;;;;;;11.38;50.56;97545.38;5132974;27;41954;-80
2023/02/24 16:15:50;;;;;;;12.73;7.23;;;;;;;11.27;50.82;97530.41;5133160;27;42962;-80
2023/02/24 16:18:21;;;;;;;13.03;7.43;;;;;;;11.16;50.69;97525.22;5133050;27;42145;-80
2023/02/24 16:20:53;;;;;;;12.70;7.60;;;;;;;11.16;51.11;97526.06;5129847;27;39789;-79
2023/02/24 16:23:22;;;;;;;11.93;7.33;;;;;;;11.07;51.26;97526.84;5131625;27;42710;-80
2023/02/24 16:25:52;;;;;;;11.37;7.00;;;;;;;10.99;51.15;97518.72;5115366;27;43057;-80
2023/02/24 16:28:22;;;;;;;9.60;6.97;;;;;;;10.91;51.27;97526.47;5115759;27;41798;-80
2023/02/24 16:30:51;;;;;;;12.37;7.30;;;;;;;10.83;51.57;97523.66;5134438;27;39683;-79
2023/02/24 16:33:21;;;;;;;10.43;6.80;;;;;;;10.78;51.43;97529.31;5132461;27;40936;-79
2023/02/24 16:35:52;;;;;;;11.10;7.03;;;;;;;10.69;52.11;97526.63;5115404;27;43039;-80
2023/02/24 16:38:21;;;;;;;10.43;7.30;;;;;;;10.59;52.14;97525.72;5132876;27;42322;-80
2023/02/24 16:40:50;;;;;;;10.80;6.87;;;;;;;10.51;52.25;97523.69;5115359;27;39106;-80
2023/02/24 16:43:18;;;;;;;10.80;6.70;;;;;;;10.44;52.65;97514.59;5133966;27;41919;-80
2023/02/24 16:45:47;;;;;;;10.53;7.07;;;;;;;10.37;52.69;97516.09;5132509;27;41705;-79
2023/02/24 16:48:20;;;;;;;10.50;7.10;;;;;;;10.24;52.67;97508.31;5132227;27;42852;-80
2023/02/24 16:50:48;;;;;;;10.77;6.60;;;;;;;10.28;53.04;97517.66;5115052;27;39169;-79
2023/02/24 16:53:18;;;;;;;8.67;6.00;;;;;;;10.24;52.63;97526.84;5133800;27;41844;-80
2023/02/24 16:55:47;;;;;;;9.93;5.97;;;;;;;10.19;53.28;97526.38;5114975;27;43688;-80
2023/02/24 16:58:16;;;;;;;11.40;6.97;;;;;;;10.03;53.26;97499.44;5133506;27;42128;-82
2023/02/24 17:00:48;;;;;;;13.13;6.80;;;;;;;10.09;54.21;97515.66;5115337;27;40159;-81
2023/02/24 17:03:20;;;;;;;14.10;8.33;;;;;;;10.04;53.84;97514.34;5132073;27;41786;-80